sensor_id;sensor_type;location;lat;lon;timestamp;P1;durP1;ratioP1;P2;durP2;ratioP2
15899;SDS011;8048;50.644;6.184;2024-03-23T00:53:44;2.27;;;2.17;;
15899;SDS011;8048;50.644;6.184;2024-03-23T00:56:09;2.53;;;2.43;;
15899;SDS011;8048;50.644;6.184;2024-03-23T00:58:35;3.07;;;2.87;;
15899;SDS011;8048;50.644;6.184;2024-03-23T01:01:00;2.67;;;2.40;;
15899;SDS011;8048;50.644;6.184;2024-03-23T01:03:28;2.63;;;2.43;;
15899;SDS011;8048;50.644;6.184;2024-03-23T01:05:54;2.90;;;2.30;;
15899;SDS011;8048;50.644;6.184;2024-03-23T01:08:19;2.33;;;2.13;;
15899;SDS011;8048;50.644;6.184;2024-03-23T01:10:58;2.27;;;2.17;;
15899;SDS011;8048;50.644;6.184;2024-03-23T01:13:27;3.27;;;2.33;;
15899;SDS011;8048;50.644;6.184;2024-03-23T01:15:54;3.10;;;2.90;;
15899;SDS011;8048;50.644;6.184;2024-03-23T01:18:21;2.13;;;2.03;;
15899;SDS011;8048;50.644;6.184;2024-03-23T01:20:47;3.10;;;2.80;;
15899;SDS011;8048;50.644;6.184;2024-03-23T01:23:13;3.53;;;2.90;;
15899;SDS011;8048;50.644;6.184;2024-03-23T01:25:39;3.20;;;3.00;;
15899;SDS011;8048;50.644;6.184;2024-03-23T01:28:05;2.60;;;2.50;;
15899;SDS011;8048;50.644;6.184;2024-03-23T01:30:34;2.10;;;1.90;;
15899;SDS011;8048;50.644;6.184;2024-03-23T01:33:00;2.60;;;2.30;;
15899;SDS011;8048;50.644;6.184;2024-03-23T01:35:27;2.20;;;2.10;;
15899;SDS011;8048;50.644;6.184;2024-03-23T01:37:53;4.07;;;2.23;;
15899;SDS011;8048;50.644;6.184;2024-03-23T01:40:19;2.50;;;2.30;;
15899;SDS011;8048;50.644;6.184;2024-03-23T01:42:57;2.53;;;2.40;;
15899;SDS011;8048;50.644;6.184;2024-03-23T01:45:23;2.40;;;2.20;;
15899;SDS011;8048;50.644;6.184;2024-03-23T01:47:49;2.20;;;2.10;;
15899;SDS011;8048;50.644;6.184;2024-03-23T01:50:16;2.10;;;2.00;;
15899;SDS011;8048;50.644;6.184;2024-03-23T01:52:42;2.10;;;1.93;;
15899;SDS011;8048;50.644;6.184;2024-03-23T01:55:08;2.30;;;2.20;;
15899;SDS011;8048;50.644;6.184;2024-03-23T01:57:33;2.27;;;2.17;;
15899;SDS011;8048;50.644;6.184;2024-03-23T01:59:59;5.37;;;2.87;;
15899;SDS011;8048;50.644;6.184;2024-03-23T02:02:25;2.00;;;1.90;;
15899;SDS011;8048;50.644;6.184;2024-03-23T02:04:50;2.20;;;2.10;;
15899;SDS011;8048;50.644;6.184;2024-03-23T02:07:16;2.50;;;2.40;;
15899;SDS011;8048;50.644;6.184;2024-03-23T02:09:42;2.80;;;2.60;;
15899;SDS011;8048;50.644;6.184;2024-03-23T02:12:08;2.33;;;2.13;;
15899;SDS011;8048;50.644;6.184;2024-03-23T02:14:34;3.17;;;2.87;;
15899;SDS011;8048;50.644;6.184;2024-03-23T02:17:00;3.20;;;2.40;;
15899;SDS011;8048;50.644;6.184;2024-03-23T02:19:25;3.03;;;2.40;;
15899;SDS011;8048;50.644;6.184;2024-03-23T02:21:51;3.00;;;2.77;;
15899;SDS011;8048;50.644;6.184;2024-03-23T02:24:16;4.90;;;4.20;;
15899;SDS011;8048;50.644;6.184;2024-03-23T02:26:42;2.63;;;2.43;;
15899;SDS011;8048;50.644;6.184;2024-03-23T02:29:07;3.67;;;3.47;;
15899;SDS011;8048;50.644;6.184;2024-03-23T02:31:34;4.67;;;2.70;;
15899;SDS011;8048;50.644;6.184;2024-03-23T02:34:00;7.20;;;2.67;;
15899;SDS011;8048;50.644;6.184;2024-03-23T02:36:26;2.70;;;2.40;;
15899;SDS011;8048;50.644;6.184;2024-03-23T02:38:51;2.90;;;2.70;;
15899;SDS011;8048;50.644;6.184;2024-03-23T02:41:17;2.47;;;2.37;;
15899;SDS011;8048;50.644;6.184;2024-03-23T02:43:48;3.80;;;3.57;;
15899;SDS011;8048;50.644;6.184;2024-03-23T02:46:17;5.77;;;3.00;;
15899;SDS011;8048;50.644;6.184;2024-03-23T02:48:42;3.60;;;2.77;;
15899;SDS011;8048;50.644;6.184;2024-03-23T02:51:08;5.30;;;2.53;;
15899;SDS011;8048;50.644;6.184;2024-03-23T02:53:34;6.67;;;5.10;;
15899;SDS011;8048;50.644;6.184;2024-03-23T02:55:59;4.97;;;4.50;;
15899;SDS011;8048;50.644;6.184;2024-03-23T02:58:25;3.13;;;2.83;;
15899;SDS011;8048;50.644;6.184;2024-03-23T03:00:51;5.43;;;2.93;;
15899;SDS011;8048;50.644;6.184;2024-03-23T03:03:16;4.80;;;2.90;;
15899;SDS011;8048;50.644;6.184;2024-03-23T03:05:42;2.40;;;2.20;;
15899;SDS011;8048;50.644;6.184;2024-03-23T03:08:08;3.13;;;2.83;;
15899;SDS011;8048;50.644;6.184;2024-03-23T03:10:33;3.63;;;2.93;;
15899;SDS011;8048;50.644;6.184;2024-03-23T03:13:01;4.77;;;2.90;;
15899;SDS011;8048;50.644;6.184;2024-03-23T03:15:27;8.37;;;2.97;;
15899;SDS011;8048;50.644;6.184;2024-03-23T03:17:53;4.83;;;2.30;;
15899;SDS011;8048;50.644;6.184;2024-03-23T03:20:19;3.23;;;2.93;;
15899;SDS011;8048;50.644;6.184;2024-03-23T03:22:46;3.10;;;2.60;;
15899;SDS011;8048;50.644;6.184;2024-03-23T03:25:12;5.10;;;3.37;;
15899;SDS011;8048;50.644;6.184;2024-03-23T03:27:37;7.40;;;2.60;;
15899;SDS011;8048;50.644;6.184;2024-03-23T03:30:03;4.50;;;3.63;;
15899;SDS011;8048;50.644;6.184;2024-03-23T03:32:30;7.20;;;2.97;;
15899;SDS011;8048;50.644;6.184;2024-03-23T03:34:57;4.40;;;4.00;;
15899;SDS011;8048;50.644;6.184;2024-03-23T03:37:22;2.77;;;2.57;;
15899;SDS011;8048;50.644;6.184;2024-03-23T03:39:48;3.43;;;2.37;;
15899;SDS011;8048;50.644;6.184;2024-03-23T03:42:14;3.90;;;3.17;;
15899;SDS011;8048;50.644;6.184;2024-03-23T03:44:40;2.70;;;2.50;;
15899;SDS011;8048;50.644;6.184;2024-03-23T03:47:05;3.73;;;2.80;;
15899;SDS011;8048;50.644;6.184;2024-03-23T03:49:31;3.77;;;3.03;;
15899;SDS011;8048;50.644;6.184;2024-03-23T03:51:57;2.20;;;2.10;;
15899;SDS011;8048;50.644;6.184;2024-03-23T03:54:22;4.63;;;3.30;;
15899;SDS011;8048;50.644;6.184;2024-03-23T03:56:48;4.40;;;2.53;;
15899;SDS011;8048;50.644;6.184;2024-03-23T03:59:13;6.13;;;3.03;;
15899;SDS011;8048;50.644;6.184;2024-03-23T04:01:40;3.57;;;2.83;;
15899;SDS011;8048;50.644;6.184;2024-03-23T04:04:05;8.00;;;3.07;;
15899;SDS011;8048;50.644;6.184;2024-03-23T04:06:31;2.70;;;2.50;;
15899;SDS011;8048;50.644;6.184;2024-03-23T04:08:58;3.00;;;2.80;;
15899;SDS011;8048;50.644;6.184;2024-03-23T04:11:24;2.20;;;2.00;;
15899;SDS011;8048;50.644;6.184;2024-03-23T04:13:49;3.97;;;3.57;;
15899;SDS011;8048;50.644;6.184;2024-03-23T04:16:24;4.07;;;2.60;;
15899;SDS011;8048;50.644;6.184;2024-03-23T04:18:54;10.37;;;3.33;;
15899;SDS011;8048;50.644;6.184;2024-03-23T04:21:19;6.30;;;3.10;;
15899;SDS011;8048;50.644;6.184;2024-03-23T04:23:46;4.47;;;3.63;;
15899;SDS011;8048;50.644;6.184;2024-03-23T04:26:12;4.73;;;4.23;;
15899;SDS011;8048;50.644;6.184;2024-03-23T04:28:37;2.50;;;2.40;;
15899;SDS011;8048;50.644;6.184;2024-03-23T04:31:03;2.77;;;2.57;;
15899;SDS011;8048;50.644;6.184;2024-03-23T04:33:29;5.07;;;3.03;;
15899;SDS011;8048;50.644;6.184;2024-03-23T04:35:55;4.53;;;3.43;;
15899;SDS011;8048;50.644;6.184;2024-03-23T04:38:20;6.20;;;3.53;;
15899;SDS011;8048;50.644;6.184;2024-03-23T04:40:53;8.43;;;3.90;;
15899;SDS011;8048;50.644;6.184;2024-03-23T04:43:20;3.23;;;3.00;;
15899;SDS011;8048;50.644;6.184;2024-03-23T04:45:45;2.90;;;2.80;;
15899;SDS011;8048;50.644;6.184;2024-03-23T04:48:11;5.00;;;3.67;;
15899;SDS011;8048;50.644;6.184;2024-03-23T04:50:36;4.83;;;2.80;;
15899;SDS011;8048;50.644;6.184;2024-03-23T04:53:02;4.33;;;3.47;;
15899;SDS011;8048;50.644;6.184;2024-03-23T04:55:28;4.03;;;3.03;;
15899;SDS011;8048;50.644;6.184;2024-03-23T04:57:53;3.30;;;2.80;;
15899;SDS011;8048;50.644;6.184;2024-03-23T05:00:19;3.97;;;3.40;;
15899;SDS011;8048;50.644;6.184;2024-03-23T05:02:44;4.73;;;3.33;;
15899;SDS011;8048;50.644;6.184;2024-03-23T05:05:11;7.57;;;5.47;;
15899;SDS011;8048;50.644;6.184;2024-03-23T05:07:37;3.47;;;2.73;;
15899;SDS011;8048;50.644;6.184;2024-03-23T05:10:02;9.03;;;3.20;;
15899;SDS011;8048;50.644;6.184;2024-03-23T05:12:28;8.60;;;3.13;;
15899;SDS011;8048;50.644;6.184;2024-03-23T05:14:54;5.60;;;2.83;;
15899;SDS011;8048;50.644;6.184;2024-03-23T05:17:19;5.63;;;3.33;;
15899;SDS011;8048;50.644;6.184;2024-03-23T05:19:45;4.13;;;3.00;;
15899;SDS011;8048;50.644;6.184;2024-03-23T05:22:10;6.00;;;3.40;;
15899;SDS011;8048;50.644;6.184;2024-03-23T05:24:36;3.47;;;3.17;;
15899;SDS011;8048;50.644;6.184;2024-03-23T05:27:01;3.83;;;3.03;;
15899;SDS011;8048;50.644;6.184;2024-03-23T05:29:27;3.60;;;3.20;;
15899;SDS011;8048;50.644;6.184;2024-03-23T05:31:54;5.13;;;4.73;;
15899;SDS011;8048;50.644;6.184;2024-03-23T05:34:22;4.80;;;3.50;;
15899;SDS011;8048;50.644;6.184;2024-03-23T05:36:47;3.93;;;3.40;;
15899;SDS011;8048;50.644;6.184;2024-03-23T05:39:14;5.93;;;4.33;;
15899;SDS011;8048;50.644;6.184;2024-03-23T05:41:41;7.43;;;3.97;;
15899;SDS011;8048;50.644;6.184;2024-03-23T05:44:07;10.13;;;5.43;;
15899;SDS011;8048;50.644;6.184;2024-03-23T05:46:33;3.97;;;3.60;;
15899;SDS011;8048;50.644;6.184;2024-03-23T05:49:00;7.30;;;3.83;;
15899;SDS011;8048;50.644;6.184;2024-03-23T05:51:27;3.90;;;3.03;;
15899;SDS011;8048;50.644;6.184;2024-03-23T05:53:53;5.90;;;3.97;;
15899;SDS011;8048;50.644;6.184;2024-03-23T05:56:19;4.57;;;4.17;;
15899;SDS011;8048;50.644;6.184;2024-03-23T05:58:45;4.60;;;3.63;;
15899;SDS011;8048;50.644;6.184;2024-03-23T06:01:11;9.00;;;6.10;;
15899;SDS011;8048;50.644;6.184;2024-03-23T06:03:37;5.23;;;4.03;;
15899;SDS011;8048;50.644;6.184;2024-03-23T06:06:03;4.30;;;3.90;;
15899;SDS011;8048;50.644;6.184;2024-03-23T06:08:29;7.10;;;4.93;;
15899;SDS011;8048;50.644;6.184;2024-03-23T06:10:55;6.60;;;5.37;;
15899;SDS011;8048;50.644;6.184;2024-03-23T06:13:20;10.93;;;5.37;;
15899;SDS011;8048;50.644;6.184;2024-03-23T06:15:49;9.17;;;6.50;;
15899;SDS011;8048;50.644;6.184;2024-03-23T06:18:15;6.40;;;5.80;;
15899;SDS011;8048;50.644;6.184;2024-03-23T06:20:41;16.07;;;6.93;;
15899;SDS011;8048;50.644;6.184;2024-03-23T06:23:06;8.83;;;6.33;;
15899;SDS011;8048;50.644;6.184;2024-03-23T06:25:32;9.17;;;6.00;;
15899;SDS011;8048;50.644;6.184;2024-03-23T06:27:57;9.80;;;6.17;;
15899;SDS011;8048;50.644;6.184;2024-03-23T06:30:23;10.40;;;7.20;;
15899;SDS011;8048;50.644;6.184;2024-03-23T06:32:49;9.30;;;6.67;;
15899;SDS011;8048;50.644;6.184;2024-03-23T06:35:14;8.30;;;7.50;;
15899;SDS011;8048;50.644;6.184;2024-03-23T06:37:40;8.17;;;6.87;;
15899;SDS011;8048;50.644;6.184;2024-03-23T06:40:06;11.80;;;8.60;;
15899;SDS011;8048;50.644;6.184;2024-03-23T06:42:34;11.03;;;8.70;;
15899;SDS011;8048;50.644;6.184;2024-03-23T06:45:00;8.73;;;7.93;;
15899;SDS011;8048;50.644;6.184;2024-03-23T06:47:26;17.83;;;8.83;;
15899;SDS011;8048;50.644;6.184;2024-03-23T06:49:52;18.07;;;8.80;;
15899;SDS011;8048;50.644;6.184;2024-03-23T06:52:17;14.80;;;8.77;;
15899;SDS011;8048;50.644;6.184;2024-03-23T06:54:43;15.33;;;8.50;;
15899;SDS011;8048;50.644;6.184;2024-03-23T06:57:09;15.53;;;10.80;;
15899;SDS011;8048;50.644;6.184;2024-03-23T06:59:36;13.63;;;8.00;;
15899;SDS011;8048;50.644;6.184;2024-03-23T07:02:03;20.23;;;10.50;;
15899;SDS011;8048;50.644;6.184;2024-03-23T07:04:30;15.50;;;9.13;;
15899;SDS011;8048;50.644;6.184;2024-03-23T07:06:55;17.83;;;9.90;;
15899;SDS011;8048;50.644;6.184;2024-03-23T07:09:21;13.27;;;9.10;;
15899;SDS011;8048;50.644;6.184;2024-03-23T07:11:51;19.73;;;10.47;;
15899;SDS011;8048;50.644;6.184;2024-03-23T07:14:18;15.83;;;8.47;;
15899;SDS011;8048;50.644;6.184;2024-03-23T07:16:43;13.90;;;10.23;;
15899;SDS011;8048;50.644;6.184;2024-03-23T07:19:09;17.37;;;10.40;;
15899;SDS011;8048;50.644;6.184;2024-03-23T07:21:35;12.57;;;10.00;;
15899;SDS011;8048;50.644;6.184;2024-03-23T07:24:00;16.33;;;9.87;;
15899;SDS011;8048;50.644;6.184;2024-03-23T07:26:26;12.83;;;10.07;;
15899;SDS011;8048;50.644;6.184;2024-03-23T07:28:51;17.63;;;8.60;;
15899;SDS011;8048;50.644;6.184;2024-03-23T07:31:18;12.17;;;10.47;;
15899;SDS011;8048;50.644;6.184;2024-03-23T07:36:10;13.03;;;8.00;;
15899;SDS011;8048;50.644;6.184;2024-03-23T07:38:36;14.00;;;9.40;;
15899;SDS011;8048;50.644;6.184;2024-03-23T07:41:05;14.33;;;9.63;;
15899;SDS011;8048;50.644;6.184;2024-03-23T07:43:32;7.63;;;6.47;;
15899;SDS011;8048;50.644;6.184;2024-03-23T07:45:58;7.93;;;4.93;;
15899;SDS011;8048;50.644;6.184;2024-03-23T07:48:24;8.73;;;5.50;;
15899;SDS011;8048;50.644;6.184;2024-03-23T07:53:26;6.13;;;4.57;;
15899;SDS011;8048;50.644;6.184;2024-03-23T07:55:57;6.70;;;4.43;;
15899;SDS011;8048;50.644;6.184;2024-03-23T07:58:35;13.30;;;5.03;;
15899;SDS011;8048;50.644;6.184;2024-03-23T08:01:05;4.17;;;3.87;;
15899;SDS011;8048;50.644;6.184;2024-03-23T08:03:38;5.47;;;4.60;;
15899;SDS011;8048;50.644;6.184;2024-03-23T08:06:11;8.37;;;5.47;;
15899;SDS011;8048;50.644;6.184;2024-03-23T08:08:37;4.30;;;3.93;;
15899;SDS011;8048;50.644;6.184;2024-03-23T08:11:03;15.27;;;5.87;;
15899;SDS011;8048;50.644;6.184;2024-03-23T08:13:29;4.23;;;3.90;;
15899;SDS011;8048;50.644;6.184;2024-03-23T08:15:59;4.40;;;3.60;;
15899;SDS011;8048;50.644;6.184;2024-03-23T08:18:25;6.70;;;4.53;;
15899;SDS011;8048;50.644;6.184;2024-03-23T08:21:02;10.00;;;5.23;;
15899;SDS011;8048;50.644;6.184;2024-03-23T08:23:28;4.97;;;4.43;;
15899;SDS011;8048;50.644;6.184;2024-03-23T08:25:58;4.90;;;4.20;;
15899;SDS011;8048;50.644;6.184;2024-03-23T08:28:25;5.87;;;4.37;;
15899;SDS011;8048;50.644;6.184;2024-03-23T08:30:52;5.90;;;4.67;;
15899;SDS011;8048;50.644;6.184;2024-03-23T08:33:18;9.23;;;5.87;;
15899;SDS011;8048;50.644;6.184;2024-03-23T08:35:52;6.20;;;4.83;;
15899;SDS011;8048;50.644;6.184;2024-03-23T08:38:22;5.40;;;4.43;;
15899;SDS011;8048;50.644;6.184;2024-03-23T08:40:56;6.00;;;4.77;;
15899;SDS011;8048;50.644;6.184;2024-03-23T08:43:29;5.67;;;4.70;;
15899;SDS011;8048;50.644;6.184;2024-03-23T08:46:08;5.63;;;4.87;;
15899;SDS011;8048;50.644;6.184;2024-03-23T08:48:35;7.67;;;5.27;;
15899;SDS011;8048;50.644;6.184;2024-03-23T08:51:02;8.13;;;5.87;;
15899;SDS011;8048;50.644;6.184;2024-03-23T08:53:29;5.00;;;4.60;;
15899;SDS011;8048;50.644;6.184;2024-03-23T08:55:58;8.43;;;5.40;;
15899;SDS011;8048;50.644;6.184;2024-03-23T08:58:26;9.87;;;5.73;;
15899;SDS011;8048;50.644;6.184;2024-03-23T09:00:52;5.60;;;4.70;;
15899;SDS011;8048;50.644;6.184;2024-03-23T09:03:25;6.47;;;5.80;;
15899;SDS011;8048;50.644;6.184;2024-03-23T09:05:51;7.40;;;6.90;;
15899;SDS011;8048;50.644;6.184;2024-03-23T09:08:17;9.60;;;6.00;;
15899;SDS011;8048;50.644;6.184;2024-03-23T09:10:43;6.33;;;5.73;;
15899;SDS011;8048;50.644;6.184;2024-03-23T09:13:09;8.93;;;6.37;;
15899;SDS011;8048;50.644;6.184;2024-03-23T09:15:35;9.03;;;5.30;;
15899;SDS011;8048;50.644;6.184;2024-03-23T09:18:02;7.77;;;4.80;;
15899;SDS011;8048;50.644;6.184;2024-03-23T09:20:28;7.43;;;6.50;;
15899;SDS011;8048;50.644;6.184;2024-03-23T09:22:54;8.83;;;5.90;;
15899;SDS011;8048;50.644;6.184;2024-03-23T09:25:19;6.07;;;5.27;;
15899;SDS011;8048;50.644;6.184;2024-03-23T09:27:48;7.93;;;5.37;;
15899;SDS011;8048;50.644;6.184;2024-03-23T09:30:15;4.17;;;3.87;;
15899;SDS011;8048;50.644;6.184;2024-03-23T09:32:44;2.23;;;2.03;;
15899;SDS011;8048;50.644;6.184;2024-03-23T09:35:10;1.77;;;1.77;;
15899;SDS011;8048;50.644;6.184;2024-03-23T09:37:36;1.97;;;1.87;;
15899;SDS011;8048;50.644;6.184;2024-03-23T09:40:02;1.80;;;1.80;;
15899;SDS011;8048;50.644;6.184;2024-03-23T09:42:28;1.50;;;1.50;;
15899;SDS011;8048;50.644;6.184;2024-03-23T09:44:54;1.53;;;1.50;;
15899;SDS011;8048;50.644;6.184;2024-03-23T09:47:23;1.40;;;1.40;;
15899;SDS011;8048;50.644;6.184;2024-03-23T09:49:50;1.90;;;1.80;;
15899;SDS011;8048;50.644;6.184;2024-03-23T09:52:15;1.73;;;1.70;;
15899;SDS011;8048;50.644;6.184;2024-03-23T09:54:41;1.60;;;1.60;;
15899;SDS011;8048;50.644;6.184;2024-03-23T09:57:07;1.97;;;1.87;;
15899;SDS011;8048;50.644;6.184;2024-03-23T09:59:32;2.60;;;1.83;;
15899;SDS011;8048;50.644;6.184;2024-03-23T10:01:59;2.30;;;2.20;;
15899;SDS011;8048;50.644;6.184;2024-03-23T10:04:35;2.60;;;2.30;;
15899;SDS011;8048;50.644;6.184;2024-03-23T10:07:14;2.10;;;2.00;;
15899;SDS011;8048;50.644;6.184;2024-03-23T10:09:44;2.47;;;2.00;;
15899;SDS011;8048;50.644;6.184;2024-03-23T10:12:12;2.60;;;2.50;;
15899;SDS011;8048;50.644;6.184;2024-03-23T10:14:40;3.70;;;2.83;;
15899;SDS011;8048;50.644;6.184;2024-03-23T10:17:16;2.93;;;2.73;;
15899;SDS011;8048;50.644;6.184;2024-03-23T10:19:46;2.50;;;2.37;;
15899;SDS011;8048;50.644;6.184;2024-03-23T10:22:14;7.77;;;2.70;;
15899;SDS011;8048;50.644;6.184;2024-03-23T10:24:47;7.77;;;2.07;;
15899;SDS011;8048;50.644;6.184;2024-03-23T10:27:20;2.77;;;2.33;;
15899;SDS011;8048;50.644;6.184;2024-03-23T10:29:47;2.27;;;2.07;;
15899;SDS011;8048;50.644;6.184;2024-03-23T10:32:14;2.70;;;2.50;;
15899;SDS011;8048;50.644;6.184;2024-03-23T10:34:40;2.73;;;2.37;;
15899;SDS011;8048;50.644;6.184;2024-03-23T10:37:06;4.57;;;2.53;;
15899;SDS011;8048;50.644;6.184;2024-03-23T10:39:36;2.63;;;2.50;;
15899;SDS011;8048;50.644;6.184;2024-03-23T10:42:07;3.03;;;2.30;;
15899;SDS011;8048;50.644;6.184;2024-03-23T10:44:34;3.37;;;2.87;;
15899;SDS011;8048;50.644;6.184;2024-03-23T10:47:01;4.23;;;3.83;;
15899;SDS011;8048;50.644;6.184;2024-03-23T10:49:36;8.47;;;6.90;;
15899;SDS011;8048;50.644;6.184;2024-03-23T10:52:04;8.03;;;5.60;;
15899;SDS011;8048;50.644;6.184;2024-03-23T10:54:31;4.87;;;4.47;;
15899;SDS011;8048;50.644;6.184;2024-03-23T10:57:10;15.40;;;6.13;;
15899;SDS011;8048;50.644;6.184;2024-03-23T10:59:39;9.27;;;6.07;;
15899;SDS011;8048;50.644;6.184;2024-03-23T11:02:05;11.10;;;6.60;;
15899;SDS011;8048;50.644;6.184;2024-03-23T11:04:43;14.20;;;6.60;;
15899;SDS011;8048;50.644;6.184;2024-03-23T11:07:51;6.63;;;5.93;;
15899;SDS011;8048;50.644;6.184;2024-03-23T11:09:58;8.83;;;7.00;;
15899;SDS011;8048;50.644;6.184;2024-03-23T11:12:25;12.37;;;6.17;;
15899;SDS011;8048;50.644;6.184;2024-03-23T11:14:58;5.80;;;5.30;;
15899;SDS011;8048;50.644;6.184;2024-03-23T11:17:35;5.50;;;3.50;;
15899;SDS011;8048;50.644;6.184;2024-03-23T11:20:02;6.70;;;4.93;;
15899;SDS011;8048;50.644;6.184;2024-03-23T11:27:45;5.17;;;4.80;;
15899;SDS011;8048;50.644;6.184;2024-03-23T11:30:19;6.53;;;5.83;;
15899;SDS011;8048;50.644;6.184;2024-03-23T11:32:54;6.10;;;5.60;;
15899;SDS011;8048;50.644;6.184;2024-03-23T11:35:27;5.93;;;5.53;;
15899;SDS011;8048;50.644;6.184;2024-03-23T11:40:28;4.87;;;4.47;;
15899;SDS011;8048;50.644;6.184;2024-03-23T11:43:06;8.30;;;4.50;;
15899;SDS011;8048;50.644;6.184;2024-03-23T11:45:37;4.47;;;4.07;;
15899;SDS011;8048;50.644;6.184;2024-03-23T11:48:19;5.60;;;5.10;;
15899;SDS011;8048;50.644;6.184;2024-03-23T11:50:56;4.30;;;4.00;;
15899;SDS011;8048;50.644;6.184;2024-03-23T11:53:23;4.73;;;4.17;;
15899;SDS011;8048;50.644;6.184;2024-03-23T11:55:52;4.63;;;4.00;;
15899;SDS011;8048;50.644;6.184;2024-03-23T11:58:20;3.93;;;3.63;;
15899;SDS011;8048;50.644;6.184;2024-03-23T12:03:25;4.73;;;3.73;;
15899;SDS011;8048;50.644;6.184;2024-03-23T12:05:53;6.13;;;3.40;;
15899;SDS011;8048;50.644;6.184;2024-03-23T12:08:24;4.80;;;3.67;;
15899;SDS011;8048;50.644;6.184;2024-03-23T12:13:40;4.87;;;3.50;;
15899;SDS011;8048;50.644;6.184;2024-03-23T12:18:44;3.10;;;2.90;;
15899;SDS011;8048;50.644;6.184;2024-03-23T12:21:10;3.10;;;2.77;;
15899;SDS011;8048;50.644;6.184;2024-03-23T12:23:35;6.63;;;3.70;;
15899;SDS011;8048;50.644;6.184;2024-03-23T12:26:03;5.20;;;2.77;;
15899;SDS011;8048;50.644;6.184;2024-03-23T12:28:29;5.10;;;3.00;;
15899;SDS011;8048;50.644;6.184;2024-03-23T12:30:55;2.53;;;2.43;;
15899;SDS011;8048;50.644;6.184;2024-03-23T12:33:21;4.70;;;2.90;;
15899;SDS011;8048;50.644;6.184;2024-03-23T12:35:46;4.00;;;3.13;;
15899;SDS011;8048;50.644;6.184;2024-03-23T12:38:13;3.60;;;3.07;;
15899;SDS011;8048;50.644;6.184;2024-03-23T12:40:38;2.90;;;2.70;;
15899;SDS011;8048;50.644;6.184;2024-03-23T12:43:04;2.63;;;2.50;;
15899;SDS011;8048;50.644;6.184;2024-03-23T12:45:29;8.33;;;2.67;;
15899;SDS011;8048;50.644;6.184;2024-03-23T12:47:55;6.37;;;3.23;;
15899;SDS011;8048;50.644;6.184;2024-03-23T12:50:21;2.47;;;2.27;;
15899;SDS011;8048;50.644;6.184;2024-03-23T12:52:47;5.17;;;2.40;;
15899;SDS011;8048;50.644;6.184;2024-03-23T12:55:12;5.30;;;3.33;;
15899;SDS011;8048;50.644;6.184;2024-03-23T12:57:38;3.00;;;2.70;;
15899;SDS011;8048;50.644;6.184;2024-03-23T13:00:05;5.03;;;2.17;;
15899;SDS011;8048;50.644;6.184;2024-03-23T13:02:34;3.50;;;2.40;;
15899;SDS011;8048;50.644;6.184;2024-03-23T13:05:00;5.20;;;2.70;;
15899;SDS011;8048;50.644;6.184;2024-03-23T13:07:25;5.20;;;2.67;;
15899;SDS011;8048;50.644;6.184;2024-03-23T13:09:51;2.90;;;2.53;;
15899;SDS011;8048;50.644;6.184;2024-03-23T13:12:17;2.83;;;2.63;;
15899;SDS011;8048;50.644;6.184;2024-03-23T13:14:46;4.03;;;2.33;;
15899;SDS011;8048;50.644;6.184;2024-03-23T13:17:12;2.33;;;2.20;;
15899;SDS011;8048;50.644;6.184;2024-03-23T13:19:38;3.63;;;2.47;;
15899;SDS011;8048;50.644;6.184;2024-03-23T13:22:04;3.23;;;3.03;;
15899;SDS011;8048;50.644;6.184;2024-03-23T13:24:30;3.63;;;2.70;;
15899;SDS011;8048;50.644;6.184;2024-03-23T13:26:56;2.43;;;2.33;;
15899;SDS011;8048;50.644;6.184;2024-03-23T13:29:23;2.97;;;2.83;;
15899;SDS011;8048;50.644;6.184;2024-03-23T13:31:49;6.23;;;3.13;;
15899;SDS011;8048;50.644;6.184;2024-03-23T13:34:16;2.57;;;2.37;;
15899;SDS011;8048;50.644;6.184;2024-03-23T13:36:43;3.13;;;2.40;;
15899;SDS011;8048;50.644;6.184;2024-03-23T13:39:09;2.77;;;2.57;;
15899;SDS011;8048;50.644;6.184;2024-03-23T13:41:39;2.70;;;2.50;;
15899;SDS011;8048;50.644;6.184;2024-03-23T13:44:05;2.57;;;2.37;;
15899;SDS011;8048;50.644;6.184;2024-03-23T13:46:32;2.53;;;2.17;;
15899;SDS011;8048;50.644;6.184;2024-03-23T13:48:58;2.80;;;2.60;;
15899;SDS011;8048;50.644;6.184;2024-03-23T13:51:24;3.27;;;2.77;;
15899;SDS011;8048;50.644;6.184;2024-03-23T13:53:51;2.43;;;2.13;;
15899;SDS011;8048;50.644;6.184;2024-03-23T13:56:21;1.90;;;1.80;;
15899;SDS011;8048;50.644;6.184;2024-03-23T13:58:47;2.27;;;2.00;;
15899;SDS011;8048;50.644;6.184;2024-03-23T14:01:14;1.87;;;1.77;;
15899;SDS011;8048;50.644;6.184;2024-03-23T14:03:40;2.10;;;1.90;;
15899;SDS011;8048;50.644;6.184;2024-03-23T14:06:07;6.20;;;2.20;;
15899;SDS011;8048;50.644;6.184;2024-03-23T14:08:34;1.80;;;1.80;;
15899;SDS011;8048;50.644;6.184;2024-03-23T14:11:01;2.10;;;2.10;;
15899;SDS011;8048;50.644;6.184;2024-03-23T14:13:28;2.03;;;1.60;;
15899;SDS011;8048;50.644;6.184;2024-03-23T14:15:54;2.40;;;2.20;;
15899;SDS011;8048;50.644;6.184;2024-03-23T14:18:19;2.00;;;1.90;;
15899;SDS011;8048;50.644;6.184;2024-03-23T14:20:47;2.77;;;2.57;;
15899;SDS011;8048;50.644;6.184;2024-03-23T14:23:13;2.73;;;2.50;;
15899;SDS011;8048;50.644;6.184;2024-03-23T14:25:39;2.17;;;2.07;;
15899;SDS011;8048;50.644;6.184;2024-03-23T14:28:04;2.30;;;2.20;;
15899;SDS011;8048;50.644;6.184;2024-03-23T14:30:30;3.83;;;2.50;;
15899;SDS011;8048;50.644;6.184;2024-03-23T14:32:56;4.83;;;2.37;;
15899;SDS011;8048;50.644;6.184;2024-03-23T14:35:22;2.27;;;2.17;;
15899;SDS011;8048;50.644;6.184;2024-03-23T14:37:48;2.63;;;2.53;;
15899;SDS011;8048;50.644;6.184;2024-03-23T14:40:14;2.67;;;2.57;;
15899;SDS011;8048;50.644;6.184;2024-03-23T14:42:40;1.97;;;1.97;;
15899;SDS011;8048;50.644;6.184;2024-03-23T14:45:06;2.40;;;2.03;;
15899;SDS011;8048;50.644;6.184;2024-03-23T14:47:32;2.73;;;2.10;;
15899;SDS011;8048;50.644;6.184;2024-03-23T14:49:58;2.23;;;2.13;;
15899;SDS011;8048;50.644;6.184;2024-03-23T14:52:23;5.67;;;2.30;;
15899;SDS011;8048;50.644;6.184;2024-03-23T14:54:49;1.80;;;1.77;;
15899;SDS011;8048;50.644;6.184;2024-03-23T14:57:15;3.63;;;3.30;;
15899;SDS011;8048;50.644;6.184;2024-03-23T14:59:40;1.93;;;1.90;;
15899;SDS011;8048;50.644;6.184;2024-03-23T15:02:06;1.77;;;1.67;;
15899;SDS011;8048;50.644;6.184;2024-03-23T15:04:33;2.90;;;2.70;;
15899;SDS011;8048;50.644;6.184;2024-03-23T15:06:59;4.03;;;2.00;;
15899;SDS011;8048;50.644;6.184;2024-03-23T15:09:24;5.97;;;2.20;;
15899;SDS011;8048;50.644;6.184;2024-03-23T15:11:50;1.80;;;1.70;;
15899;SDS011;8048;50.644;6.184;2024-03-23T15:14:16;1.93;;;1.80;;
15899;SDS011;8048;50.644;6.184;2024-03-23T15:16:41;2.33;;;2.13;;
15899;SDS011;8048;50.644;6.184;2024-03-23T15:19:07;1.87;;;1.60;;
15899;SDS011;8048;50.644;6.184;2024-03-23T15:21:33;2.70;;;1.67;;
15899;SDS011;8048;50.644;6.184;2024-03-23T15:23:59;2.30;;;1.80;;
15899;SDS011;8048;50.644;6.184;2024-03-23T15:26:24;7.63;;;3.10;;
15899;SDS011;8048;50.644;6.184;2024-03-23T15:28:50;1.77;;;1.67;;
15899;SDS011;8048;50.644;6.184;2024-03-23T15:31:22;1.43;;;1.43;;
15899;SDS011;8048;50.644;6.184;2024-03-23T15:33:48;5.00;;;2.57;;
15899;SDS011;8048;50.644;6.184;2024-03-23T15:36:13;2.00;;;1.47;;
15899;SDS011;8048;50.644;6.184;2024-03-23T15:38:39;1.63;;;1.53;;
15899;SDS011;8048;50.644;6.184;2024-03-23T15:41:05;1.73;;;1.63;;
15899;SDS011;8048;50.644;6.184;2024-03-23T15:43:30;1.40;;;1.40;;
15899;SDS011;8048;50.644;6.184;2024-03-23T15:46:03;1.50;;;1.40;;
15899;SDS011;8048;50.644;6.184;2024-03-23T15:48:30;2.17;;;1.97;;
15899;SDS011;8048;50.644;6.184;2024-03-23T15:51:00;2.97;;;1.50;;
15899;SDS011;8048;50.644;6.184;2024-03-23T15:53:28;1.57;;;1.50;;
15899;SDS011;8048;50.644;6.184;2024-03-23T15:55:54;1.73;;;1.60;;
15899;SDS011;8048;50.644;6.184;2024-03-23T15:58:20;2.30;;;2.20;;
15899;SDS011;8048;50.644;6.184;2024-03-23T16:03:25;1.93;;;1.83;;
15899;SDS011;8048;50.644;6.184;2024-03-23T16:05:54;1.80;;;1.70;;
15899;SDS011;8048;50.644;6.184;2024-03-23T16:08:30;2.13;;;1.90;;
15899;SDS011;8048;50.644;6.184;2024-03-23T16:11:06;2.23;;;2.07;;
15899;SDS011;8048;50.644;6.184;2024-03-23T16:13:33;2.03;;;1.83;;
15899;SDS011;8048;50.644;6.184;2024-03-23T16:16:03;1.63;;;1.53;;